createdAt,value
2017-03-07T00:00:01.390Z,67
2017-03-07T00:01:01.427Z,67.47
2017-03-07T00:02:01.425Z,66.62
2017-03-07T00:03:01.438Z,66.91
2017-03-07T00:04:01.464Z,66.91
2017-03-07T00:05:01.466Z,66.62
2017-03-07T00:06:01.503Z,66.53
2017-03-07T00:07:01.103Z,67.19
2017-03-07T00:08:01.526Z,66.62
2017-03-07T00:09:01.538Z,67.19
2017-03-07T00:10:01.167Z,66.91
2017-03-07T00:11:01.162Z,66.62
2017-03-07T00:12:01.574Z,66.81
2017-03-07T00:13:01.596Z,66.81
2017-03-07T00:14:01.611Z,67
2017-03-07T00:15:01.631Z,67.1
2017-03-07T00:16:01.745Z,67.1
2017-03-07T00:17:01.658Z,67.1
2017-03-07T00:18:01.670Z,67.1
2017-03-07T00:19:01.697Z,67
2017-03-07T00:20:01.718Z,67.19
2017-03-07T00:21:03.119Z,67.29
2017-03-07T00:22:01.732Z,67.1
2017-03-07T00:23:01.762Z,67.1
2017-03-07T00:24:01.767Z,67.1
2017-03-07T00:25:01.385Z,67.1
2017-03-07T00:26:01.797Z,66.81
2017-03-07T00:27:01.810Z,66.91
2017-03-07T00:28:01.844Z,66.81
2017-03-07T00:29:01.846Z,67.1
2017-03-07T00:30:01.456Z,66.81
2017-03-07T00:31:01.871Z,67.86
2017-03-07T00:32:01.899Z,66.81
2017-03-07T00:33:01.905Z,66.91
2017-03-07T00:34:01.920Z,67.76
2017-03-07T00:35:01.936Z,67.1
2017-03-07T00:36:01.591Z,67.67
2017-03-07T00:37:01.565Z,67.57
2017-03-07T00:38:02.151Z,67.57
2017-03-07T00:39:01.765Z,67.67
2017-03-07T00:40:02.168Z,67.76
2017-03-07T00:41:02.109Z,67.76
2017-03-07T00:42:02.122Z,67.76
2017-03-07T00:43:01.741Z,67.57
2017-03-07T00:44:01.751Z,67.47
2017-03-07T00:45:02.167Z,67.67
2017-03-07T00:46:01.783Z,67.67
2017-03-07T00:47:02.229Z,67.57
2017-03-07T00:48:02.191Z,67.95
2017-03-07T00:49:02.189Z,67.57
2017-03-07T00:50:02.187Z,67.29
2017-03-07T00:51:02.194Z,67.47
2017-03-07T00:52:02.291Z,67.67
2017-03-07T00:53:02.197Z,67.47
2017-03-07T00:54:02.223Z,67.76
2017-03-07T00:55:02.240Z,67.76
2017-03-07T00:56:02.247Z,67.57
2017-03-07T00:57:02.260Z,67.57
2017-03-07T00:58:02.275Z,67.76
2017-03-07T00:59:02.290Z,67.47
2017-03-07T01:00:02.309Z,67.57
2017-03-07T01:01:02.428Z,67.57
2017-03-07T01:02:02.342Z,67.57
2017-03-07T01:03:02.352Z,67.67
2017-03-07T01:04:02.372Z,67.29
2017-03-07T01:05:02.386Z,67.47
2017-03-07T01:06:02.398Z,67.47
2017-03-07T01:07:02.489Z,67.29
2017-03-07T01:08:02.427Z,67.67
2017-03-07T01:09:02.445Z,67.76
2017-03-07T01:10:02.471Z,68.05
2017-03-07T01:11:02.473Z,67.67
2017-03-07T01:12:02.492Z,68.05
2017-03-07T01:13:02.509Z,68.05
2017-03-07T01:14:02.521Z,67.38
2017-03-07T01:15:02.541Z,67.57
2017-03-07T01:16:02.564Z,68.24
2017-03-07T01:17:02.574Z,67.38
2017-03-07T01:18:02.587Z,67.19
2017-03-07T01:19:02.595Z,67.29
2017-03-07T01:20:02.642Z,67.57
2017-03-07T01:21:02.625Z,67.47
2017-03-07T01:22:02.271Z,68.52
2017-03-07T01:23:03.009Z,67.38
2017-03-07T01:24:02.674Z,67.38
2017-03-07T01:25:02.691Z,68.52
2017-03-07T01:26:02.703Z,67.47
2017-03-07T01:27:02.716Z,68.33
2017-03-07T01:28:02.732Z,67.47
2017-03-07T01:29:02.753Z,68.05
2017-03-07T01:30:02.767Z,67.19
2017-03-07T01:31:02.778Z,67.38
2017-03-07T01:32:02.397Z,67.38
2017-03-07T01:33:02.809Z,67.57
2017-03-07T01:34:02.828Z,67.57
2017-03-07T01:35:02.842Z,67.47
2017-03-07T01:36:02.858Z,67.47
2017-03-07T01:37:02.867Z,67.47
2017-03-07T01:38:02.886Z,67.47
2017-03-07T01:39:02.898Z,67.67
2017-03-07T01:40:02.914Z,67.76
2017-03-07T01:41:02.932Z,67.57
2017-03-07T01:42:02.958Z,67.76
2017-03-07T01:43:02.960Z,67.76
2017-03-07T01:44:02.978Z,67.57
2017-03-07T01:45:02.997Z,67.76
2017-03-07T01:46:03.010Z,68.24
2017-03-07T01:47:03.022Z,67.76
2017-03-07T01:48:03.041Z,68.24
2017-03-07T01:49:03.053Z,67.76
2017-03-07T01:50:02.687Z,67.95
2017-03-07T01:51:03.083Z,67.76
2017-03-07T01:52:03.120Z,67.86
2017-03-07T01:53:03.124Z,67.57
2017-03-07T01:54:03.128Z,68.15
2017-03-07T01:55:03.143Z,67.95
2017-03-07T01:56:03.179Z,67.47
2017-03-07T01:57:03.178Z,67.57
2017-03-07T01:58:03.203Z,68.15
2017-03-07T01:59:03.203Z,67.76
2017-03-07T02:00:03.233Z,67.47
2017-03-07T02:01:03.231Z,68.24
2017-03-07T02:02:03.254Z,67.57
2017-03-07T02:03:03.269Z,67.57
2017-03-07T02:04:03.299Z,67.86
2017-03-07T02:05:03.292Z,68.05
2017-03-07T02:06:02.938Z,67.67
2017-03-07T02:07:03.331Z,68.05
2017-03-07T02:08:03.341Z,67.67
2017-03-07T02:09:03.359Z,68.24
2017-03-07T02:10:03.374Z,67.76
2017-03-07T02:11:03.400Z,67.76
2017-03-07T02:12:03.400Z,67.95
2017-03-07T02:13:03.422Z,68.05
2017-03-07T02:14:03.442Z,67.76
2017-03-07T02:15:03.451Z,68.15
2017-03-07T02:16:03.467Z,68.33
2017-03-07T02:17:03.632Z,68.05
2017-03-07T02:18:03.505Z,68.24
2017-03-07T02:19:03.511Z,68.05
2017-03-07T02:20:03.143Z,68.43
2017-03-07T02:21:03.541Z,68.15
2017-03-07T02:22:03.561Z,68.05
2017-03-07T02:23:03.576Z,68.33
2017-03-07T02:24:03.186Z,68.05
2017-03-07T02:25:03.610Z,67.95
2017-03-07T02:26:03.616Z,67.95
2017-03-07T02:27:03.631Z,67.95
2017-03-07T02:28:03.648Z,68.15
2017-03-07T02:29:03.673Z,68.33
2017-03-07T02:30:03.699Z,68.62
2017-03-07T02:31:03.689Z,68.33
2017-03-07T02:32:03.714Z,68.05
2017-03-07T02:33:03.734Z,68.05
2017-03-07T02:34:03.739Z,68.33
2017-03-07T02:35:03.750Z,68.05
2017-03-07T02:36:03.762Z,68.62
2017-03-07T02:37:03.777Z,67.86
2017-03-07T02:38:03.793Z,68.15
2017-03-07T02:39:03.811Z,68.33
2017-03-07T02:40:03.830Z,68.24
2017-03-07T02:41:03.839Z,67.86
2017-03-07T02:42:03.860Z,68.15
2017-03-07T02:43:03.885Z,68.05
2017-03-07T02:44:03.496Z,68.43
2017-03-07T02:45:03.918Z,68.43
2017-03-07T02:46:03.928Z,68.62
2017-03-07T02:47:04.103Z,68.24
2017-03-07T02:48:03.944Z,68.33
2017-03-07T02:49:03.958Z,68.52
2017-03-07T02:50:03.995Z,68.33
2017-03-07T02:51:03.997Z,68.43
2017-03-07T02:52:04.014Z,68.05
2017-03-07T02:53:04.024Z,68.15
2017-03-07T02:54:04.035Z,68.24
2017-03-07T02:55:04.110Z,68.15
2017-03-07T02:56:04.180Z,67.95
2017-03-07T02:57:04.174Z,68.15
2017-03-07T02:58:04.100Z,68.05
2017-03-07T02:59:04.110Z,68.62
2017-03-07T03:00:04.129Z,68.05
2017-03-07T03:01:04.228Z,68.05
2017-03-07T03:02:04.162Z,68.24
2017-03-07T03:03:04.178Z,68.33
2017-03-07T03:04:04.206Z,68.15
2017-03-07T03:05:04.202Z,68.62
2017-03-07T03:06:04.223Z,68.05
2017-03-07T03:07:04.229Z,68.05
2017-03-07T03:08:04.245Z,68.33
2017-03-07T03:09:04.328Z,68.33
2017-03-07T03:10:04.298Z,68.24
2017-03-07T03:11:04.290Z,68.24
2017-03-07T03:12:04.305Z,68.52
2017-03-07T03:13:04.318Z,68.43
2017-03-07T03:14:04.336Z,68.52
2017-03-07T03:15:04.348Z,68.15
2017-03-07T03:16:04.363Z,68.52
2017-03-07T03:17:04.394Z,68.9
2017-03-07T03:18:04.001Z,68.52
2017-03-07T03:19:04.498Z,68.33
2017-03-07T03:20:04.424Z,68.33
2017-03-07T03:21:04.442Z,68.24
2017-03-07T03:22:04.452Z,67.95
2017-03-07T03:23:04.466Z,68.33
2017-03-07T03:24:04.486Z,68.3
2017-03-07T03:25:04.557Z,68.24
2017-03-07T03:26:04.534Z,68.33
2017-03-07T03:27:04.714Z,68.05
2017-03-07T03:28:04.571Z,68.59
2017-03-07T03:29:04.558Z,68.11
2017-03-07T03:30:04.582Z,68.68
2017-03-07T03:31:04.585Z,68.4
2017-03-07T03:32:04.619Z,68.49
2017-03-07T03:33:04.738Z,68.4
2017-03-07T03:34:04.766Z,68.3
2017-03-07T03:35:04.660Z,68.77
2017-03-07T03:36:04.679Z,68.49
2017-03-07T03:37:04.700Z,68.68
2017-03-07T03:38:04.689Z,68.68
2017-03-07T03:39:04.709Z,68.49
2017-03-07T03:40:04.720Z,68.49
2017-03-07T03:41:04.742Z,68.87
2017-03-07T03:42:04.750Z,68.96
2017-03-07T03:43:04.772Z,68.49
2017-03-07T03:44:04.792Z,68.96
2017-03-07T03:45:04.805Z,68.87
2017-03-07T03:46:04.816Z,68.4
2017-03-07T03:47:04.843Z,68.49
2017-03-07T03:48:04.874Z,68.68
2017-03-07T03:49:04.858Z,68.49
2017-03-07T03:50:04.993Z,68.59
2017-03-07T03:51:04.931Z,68.77
2017-03-07T03:52:05.030Z,68.21
2017-03-07T03:53:05.031Z,68.4
2017-03-07T03:54:05.062Z,68.68
2017-03-07T03:55:04.995Z,68.49
2017-03-07T03:56:04.972Z,68.49
2017-03-07T03:57:05.104Z,68.68
2017-03-07T03:58:05.116Z,68.21
2017-03-07T03:59:05.139Z,68.49
2017-03-07T04:00:05.093Z,68.59
2017-03-07T04:01:05.101Z,68.49
2017-03-07T04:02:05.065Z,68.77
2017-03-07T04:03:05.072Z,68.49
2017-03-07T04:04:05.094Z,68.49
2017-03-07T04:05:05.094Z,68.59
2017-03-07T04:06:05.186Z,68.49
2017-03-07T04:07:05.134Z,68.3
2017-03-07T04:08:05.136Z,68.77
2017-03-07T04:09:05.161Z,68.49
2017-03-07T04:10:05.172Z,68.59
2017-03-07T04:11:05.181Z,68.87
2017-03-07T04:12:05.251Z,68.59
2017-03-07T04:13:05.325Z,68.59
2017-03-07T04:14:05.219Z,68.59
2017-03-07T04:15:05.348Z,69.15
2017-03-07T04:16:05.251Z,69.35
2017-03-07T04:17:05.263Z,68.59
2017-03-07T04:18:05.282Z,68.4
2017-03-07T04:19:05.296Z,68.49
2017-03-07T04:20:05.318Z,68.21
2017-03-07T04:21:05.325Z,68.59
2017-03-07T04:22:05.339Z,68.49
2017-03-07T04:23:05.354Z,68.3
2017-03-07T04:24:05.382Z,68.3
2017-03-07T04:25:05.001Z,68.3
2017-03-07T04:26:05.397Z,68.3
2017-03-07T04:27:05.429Z,68.4
2017-03-07T04:28:05.433Z,68.49
2017-03-07T04:29:05.446Z,69.25
2017-03-07T04:30:05.061Z,68.3
2017-03-07T04:31:05.470Z,68.3
2017-03-07T04:32:05.493Z,68.3
2017-03-07T04:33:05.512Z,68.96
2017-03-07T04:34:05.510Z,69.02
2017-03-07T04:35:05.532Z,68.46
2017-03-07T04:36:05.538Z,68.36
2017-03-07T04:37:05.604Z,68.3
2017-03-07T04:38:05.596Z,69.41
2017-03-07T04:39:05.630Z,69.41
2017-03-07T04:40:05.706Z,68.65
2017-03-07T04:41:05.617Z,68.55
2017-03-07T04:42:05.645Z,68.74
2017-03-07T04:43:05.810Z,68.49
2017-03-07T04:44:05.773Z,68.3
2017-03-07T04:45:05.802Z,69.21
2017-03-07T04:46:05.744Z,69.12
2017-03-07T04:47:05.768Z,68.17
2017-03-07T04:48:05.826Z,68.27
2017-03-07T04:49:05.828Z,68.46
2017-03-07T04:50:05.862Z,68.55
2017-03-07T04:51:05.867Z,68.46
2017-03-07T04:52:05.903Z,68.46
2017-03-07T04:53:05.790Z,68.46
2017-03-07T04:54:05.848Z,68.17
2017-03-07T04:55:05.855Z,68.55
2017-03-07T04:56:05.931Z,68.65
2017-03-07T04:57:05.552Z,68.65
2017-03-07T04:58:05.970Z,68.55
2017-03-07T04:59:05.972Z,68.55
2017-03-07T05:00:05.602Z,68.55
2017-03-07T05:01:06.036Z,68.55
2017-03-07T05:02:05.627Z,68.55
2017-03-07T05:03:06.104Z,68.46
2017-03-07T05:04:05.947Z,68.84
2017-03-07T05:05:05.609Z,68.36
2017-03-07T05:06:05.975Z,68.36
2017-03-07T05:07:06.008Z,69.21
2017-03-07T05:08:06.019Z,69.12
2017-03-07T05:09:06.022Z,68.93
2017-03-07T05:10:06.032Z,69.12
2017-03-07T05:11:06.048Z,69.31
2017-03-07T05:12:06.058Z,69.12
2017-03-07T05:13:06.077Z,69.21
2017-03-07T05:14:06.089Z,69.02
2017-03-07T05:15:06.108Z,69.02
2017-03-07T05:16:06.121Z,68.93
2017-03-07T05:17:06.133Z,69.31
2017-03-07T05:18:06.145Z,68.65
2017-03-07T05:19:06.168Z,68.93
2017-03-07T05:20:06.175Z,68.93
2017-03-07T05:21:06.192Z,69.12
2017-03-07T05:22:06.201Z,68.36
2017-03-07T05:23:06.222Z,68.55
2017-03-07T05:24:06.236Z,69.5
2017-03-07T05:25:06.258Z,68.74
2017-03-07T05:26:06.259Z,68.36
2017-03-07T05:27:05.892Z,68.07
2017-03-07T05:28:06.290Z,68.55
2017-03-07T05:29:06.310Z,68.27
2017-03-07T05:30:06.319Z,68.84
2017-03-07T05:31:05.937Z,68.46
2017-03-07T05:32:06.356Z,68.36
2017-03-07T05:33:06.548Z,68.46
2017-03-07T05:34:06.509Z,68.93
2017-03-07T05:35:06.421Z,69.12
2017-03-07T05:36:06.523Z,69.02
2017-03-07T05:37:06.533Z,69.02
2017-03-07T05:38:06.576Z,68.65
2017-03-07T05:39:06.489Z,68.46
2017-03-07T05:40:06.461Z,68.17
2017-03-07T05:41:06.494Z,68.46
2017-03-07T05:42:06.580Z,69.12
2017-03-07T05:43:06.639Z,69.02
2017-03-07T05:44:06.595Z,69.02
2017-03-07T05:45:06.659Z,69.12
2017-03-07T05:46:06.592Z,68.93
2017-03-07T05:47:06.658Z,69.02
2017-03-07T05:48:06.738Z,69.02
2017-03-07T05:49:06.587Z,68.84
2017-03-07T05:50:06.642Z,69.12
2017-03-07T05:51:06.614Z,68.93
2017-03-07T05:52:06.631Z,69.02
2017-03-07T05:53:06.650Z,68.93
2017-03-07T05:54:06.660Z,69.12
2017-03-07T05:55:06.272Z,69.02
2017-03-07T05:56:06.688Z,68.46
2017-03-07T05:57:06.700Z,68.74
2017-03-07T05:58:06.715Z,68.07
2017-03-07T05:59:06.740Z,68.27
2017-03-07T06:00:06.832Z,68.46
2017-03-07T06:01:06.786Z,68.55
2017-03-07T06:02:06.771Z,68.36
2017-03-07T06:03:06.786Z,68.27
2017-03-07T06:04:06.797Z,68.07
2017-03-07T06:05:06.809Z,68.36
2017-03-07T06:06:06.827Z,68.46
2017-03-07T06:07:06.853Z,68.52
2017-03-07T06:08:06.863Z,68.74
2017-03-07T06:09:06.871Z,68.74
2017-03-07T06:10:06.881Z,68.55
2017-03-07T06:11:06.898Z,68.46
2017-03-07T06:12:06.910Z,68.27
2017-03-07T06:13:06.926Z,68.23
2017-03-07T06:14:06.951Z,69.21
2017-03-07T06:15:06.954Z,68.8
2017-03-07T06:16:06.576Z,69.27
2017-03-07T06:17:06.981Z,68.55
2017-03-07T06:18:06.995Z,68.23
2017-03-07T06:19:07.009Z,68.42
2017-03-07T06:20:07.028Z,68.52
2017-03-07T06:21:07.039Z,68.33
2017-03-07T06:22:07.064Z,68.42
2017-03-07T06:23:07.063Z,68.33
2017-03-07T06:24:07.076Z,68.42
2017-03-07T06:25:07.091Z,68.42
2017-03-07T06:26:06.711Z,68.23
2017-03-07T06:27:07.121Z,68.9
2017-03-07T06:28:07.134Z,68.23
2017-03-07T06:29:07.148Z,68.42
2017-03-07T06:30:07.161Z,67.94
2017-03-07T06:31:07.177Z,68.42
2017-03-07T06:32:07.189Z,68.52
2017-03-07T06:33:07.215Z,68.71
2017-03-07T06:34:07.222Z,68.8
2017-03-07T06:35:07.237Z,68.52
2017-03-07T06:36:07.248Z,68.52
2017-03-07T06:37:07.257Z,68.42
2017-03-07T06:38:07.272Z,68.04
2017-03-07T06:39:07.288Z,68.13
2017-03-07T06:40:07.311Z,68.33
2017-03-07T06:41:07.325Z,68.61
2017-03-07T06:42:07.341Z,68.23
2017-03-07T06:43:07.340Z,68.52
2017-03-07T06:44:07.354Z,68.23
2017-03-07T06:45:07.366Z,68.71
2017-03-07T06:46:06.987Z,68.9
2017-03-07T06:47:07.001Z,68.33
2017-03-07T06:48:07.415Z,68.33
2017-03-07T06:49:07.427Z,68.42
2017-03-07T06:50:07.437Z,68.42
2017-03-07T06:51:07.457Z,68.42
2017-03-07T06:52:07.480Z,68.42
2017-03-07T06:53:07.482Z,68.61
2017-03-07T06:54:07.503Z,68.42
2017-03-07T06:55:07.513Z,68.23
2017-03-07T06:56:07.522Z,68.52
2017-03-07T06:57:07.554Z,68.33
2017-03-07T06:58:07.560Z,68.23
2017-03-07T06:59:07.563Z,69.27
2017-03-07T07:00:07.579Z,69.27
2017-03-07T07:01:07.200Z,68.23
2017-03-07T07:02:07.606Z,68.23
2017-03-07T07:03:07.625Z,68.42
2017-03-07T07:04:07.637Z,68.52
2017-03-07T07:05:07.646Z,68.23
2017-03-07T07:06:07.659Z,68.52
2017-03-07T07:07:07.673Z,68.42
2017-03-07T07:08:07.685Z,68.71
2017-03-07T07:09:07.701Z,68.52
2017-03-07T07:10:07.713Z,68.33
2017-03-07T07:11:07.730Z,69.09
2017-03-07T07:12:07.750Z,69.09
2017-03-07T07:13:07.764Z,68.71
2017-03-07T07:14:07.771Z,68.9
2017-03-07T07:15:07.789Z,69.09
2017-03-07T07:16:07.813Z,68.9
2017-03-07T07:17:07.814Z,68.71
2017-03-07T07:18:07.823Z,69.18
2017-03-07T07:19:07.836Z,69.09
2017-03-07T07:20:07.853Z,69.09
2017-03-07T07:21:07.863Z,69.09
2017-03-07T07:22:07.881Z,69.27
2017-03-07T07:23:07.900Z,68.9
2017-03-07T07:24:07.907Z,69.18
2017-03-07T07:25:07.924Z,69.09
2017-03-07T07:26:07.936Z,68.99
2017-03-07T07:27:07.953Z,69.09
2017-03-07T07:28:07.958Z,68.99
2017-03-07T07:29:07.987Z,68.8
2017-03-07T07:30:07.990Z,68.9
2017-03-07T07:31:08.004Z,69.18
2017-03-07T07:32:08.042Z,68.9
2017-03-07T07:33:08.028Z,68.9
2017-03-07T07:34:08.064Z,68.9
2017-03-07T07:35:08.055Z,68.99
2017-03-07T07:36:07.673Z,69.27
2017-03-07T07:37:08.089Z,68.8
2017-03-07T07:38:08.110Z,68.8
2017-03-07T07:39:08.122Z,68.9
2017-03-07T07:40:08.132Z,68.99
2017-03-07T07:41:08.139Z,69.37
2017-03-07T07:42:08.152Z,69.46
2017-03-07T07:43:08.170Z,69.09
2017-03-07T07:44:08.177Z,68.99
2017-03-07T07:45:08.207Z,68.9
2017-03-07T07:46:08.207Z,69.09
2017-03-07T07:47:08.221Z,69.46
2017-03-07T07:48:08.233Z,69.18
2017-03-07T07:49:08.257Z,69.09
2017-03-07T07:50:08.263Z,69.27
2017-03-07T07:51:08.285Z,69.37
2017-03-07T07:52:08.293Z,68.99
2017-03-07T07:53:08.299Z,69.37
2017-03-07T07:54:08.312Z,69.09
2017-03-07T07:55:08.335Z,69.18
2017-03-07T07:56:08.360Z,69.37
2017-03-07T07:57:08.368Z,69.27
2017-03-07T07:58:08.369Z,69.27
2017-03-07T07:59:08.382Z,68.9
2017-03-07T08:00:08.421Z,68.9
2017-03-07T08:01:08.411Z,68.99
2017-03-07T08:02:08.424Z,68.99
2017-03-07T08:03:08.439Z,68.99
2017-03-07T08:04:08.456Z,68.99
2017-03-07T08:05:08.465Z,69.37
2017-03-07T08:06:08.703Z,68.99
2017-03-07T08:07:08.560Z,69.27
2017-03-07T08:08:08.567Z,69.09
2017-03-07T08:09:08.617Z,69.18
2017-03-07T08:10:08.646Z,69.56
2017-03-07T08:11:08.658Z,69.56
2017-03-07T08:12:08.638Z,69.66
2017-03-07T08:13:08.648Z,69.94
2017-03-07T08:14:08.590Z,70.23
2017-03-07T08:15:08.654Z,68.9
2017-03-07T08:16:08.615Z,69.09
2017-03-07T08:17:08.626Z,69.18
2017-03-07T08:18:08.638Z,69.09
2017-03-07T08:19:08.664Z,68.9
2017-03-07T08:20:08.670Z,69.75
2017-03-07T08:21:08.681Z,69.85
2017-03-07T08:22:08.696Z,68.99
2017-03-07T08:23:08.716Z,68.9
2017-03-07T08:24:08.740Z,69.37
2017-03-07T08:25:08.740Z,69.37
2017-03-07T08:26:08.750Z,69.66
2017-03-07T08:27:08.776Z,69.18
2017-03-07T08:28:08.784Z,69.37
2017-03-07T08:29:08.805Z,69.09
2017-03-07T08:30:08.807Z,68.99
2017-03-07T08:31:08.424Z,69.56
2017-03-07T08:32:08.843Z,69.85
2017-03-07T08:33:08.846Z,69.75
2017-03-07T08:34:08.902Z,69.85
2017-03-07T08:35:08.874Z,70.13
2017-03-07T08:36:08.489Z,69.85
2017-03-07T08:37:08.899Z,69.94
2017-03-07T08:38:08.912Z,70.04
2017-03-07T08:39:08.933Z,70.13
2017-03-07T08:40:08.546Z,70.13
2017-03-07T08:41:08.570Z,70.23
2017-03-07T08:42:08.965Z,69.56
2017-03-07T08:43:08.979Z,69.46
2017-03-07T08:44:08.994Z,69.18
2017-03-07T08:45:09.017Z,69.66
2017-03-07T08:46:09.034Z,70.04
2017-03-07T08:47:09.063Z,70.32
2017-03-07T08:48:09.073Z,70.04
2017-03-07T08:49:09.061Z,69.85
2017-03-07T08:50:08.678Z,69.94
2017-03-07T08:51:08.693Z,69.94
2017-03-07T08:52:09.103Z,69.94
2017-03-07T08:53:09.116Z,70.23
2017-03-07T08:54:09.272Z,70.32
2017-03-07T08:55:09.144Z,69.94
2017-03-07T08:56:09.164Z,70.51
2017-03-07T08:57:09.168Z,70.32
2017-03-07T08:58:09.196Z,70.7
2017-03-07T08:59:09.201Z,69.56
2017-03-07T09:00:09.215Z,69.85
2017-03-07T09:01:09.239Z,69.85
2017-03-07T09:02:09.237Z,69.85
2017-03-07T09:03:09.259Z,69.85
2017-03-07T09:04:09.264Z,70.13
2017-03-07T09:05:09.284Z,70.13
2017-03-07T09:06:09.311Z,69.85
2017-03-07T09:07:09.309Z,70.13
2017-03-07T09:08:09.321Z,69.46
2017-03-07T09:09:09.333Z,70.23
2017-03-07T09:12:26.798Z,70.04
2017-03-07T09:13:26.817Z,69.94
2017-03-07T09:14:26.826Z,70.04
2017-03-07T09:15:26.837Z,70.04
2017-03-07T09:16:26.852Z,70.23
2017-03-07T09:17:26.877Z,69.75
2017-03-07T09:18:26.880Z,69.37
2017-03-07T09:19:26.896Z,69.37
2017-03-07T09:20:26.907Z,69.37
2017-03-07T09:21:26.938Z,70.51
2017-03-07T09:22:26.945Z,70.23
2017-03-07T09:23:26.947Z,70.13
2017-03-07T09:24:26.960Z,69.75
2017-03-07T09:25:26.972Z,70.23
2017-03-07T09:26:26.984Z,69.94
2017-03-07T09:27:27.013Z,70.04
2017-03-07T09:28:27.012Z,69.85
2017-03-07T09:29:27.026Z,69.85
2017-03-07T09:30:27.058Z,69.94
2017-03-07T09:31:27.053Z,69.56
2017-03-07T09:32:27.071Z,69.18
2017-03-07T09:33:27.091Z,68.8
2017-03-07T09:34:27.093Z,69.18
2017-03-07T09:35:26.716Z,69.18
2017-03-07T09:36:27.148Z,70.04
2017-03-07T09:37:27.140Z,70.13
2017-03-07T09:38:27.150Z,69.37
2017-03-07T09:39:27.195Z,69.46
2017-03-07T09:40:27.177Z,69.18
2017-03-07T09:41:27.235Z,69.46
2017-03-07T09:42:27.203Z,70.42
2017-03-07T09:43:27.217Z,70.32
2017-03-07T09:44:27.234Z,70.04
2017-03-07T09:45:27.250Z,70.32
2017-03-07T09:46:27.256Z,69.75
2017-03-07T09:47:27.274Z,69.94
2017-03-07T09:48:27.296Z,69.46
2017-03-07T09:49:27.301Z,68.9
2017-03-07T09:50:27.312Z,69.56
2017-03-07T09:51:26.940Z,68.9
2017-03-07T09:52:27.359Z,70.04
2017-03-07T09:53:27.358Z,69.56
2017-03-07T09:54:27.366Z,70.23
2017-03-07T09:55:27.398Z,70.32
2017-03-07T09:56:27.398Z,70.23
2017-03-07T09:57:27.412Z,69.75
2017-03-07T09:58:27.434Z,69.56
2017-03-07T09:59:27.445Z,69.37
2017-03-07T10:00:27.447Z,69.18
2017-03-07T10:01:27.469Z,69.66
2017-03-07T10:02:27.488Z,69.12
2017-03-07T10:03:27.489Z,69.46
2017-03-07T10:04:27.517Z,69.6
2017-03-07T10:05:27.517Z,70.17
2017-03-07T10:06:27.529Z,69.31
2017-03-07T10:07:27.550Z,68.93
2017-03-07T10:08:27.568Z,69.27
2017-03-07T10:09:27.575Z,69.02
2017-03-07T10:10:27.615Z,68.74
2017-03-07T10:11:27.604Z,69.21
2017-03-07T10:12:27.646Z,69.21
2017-03-07T10:13:27.246Z,69.31
2017-03-07T10:14:27.642Z,69.69
2017-03-07T10:15:27.654Z,69.12
2017-03-07T10:16:27.668Z,68.93
2017-03-07T10:17:27.703Z,69.21
2017-03-07T10:18:27.714Z,69.12
2017-03-07T10:19:27.708Z,69.12
2017-03-07T10:20:27.726Z,69.12
2017-03-07T10:21:27.342Z,69.31
2017-03-07T10:22:27.766Z,68.8
2017-03-07T10:23:27.772Z,68.93
2017-03-07T10:24:27.384Z,68.99
2017-03-07T10:25:27.793Z,68.93
2017-03-07T10:26:27.807Z,69.02
2017-03-07T10:27:27.821Z,69.09
2017-03-07T10:28:27.833Z,69.02
2017-03-07T10:29:27.845Z,69.12
2017-03-07T10:30:27.873Z,68.8
2017-03-07T10:31:27.887Z,68.84
2017-03-07T10:32:27.887Z,68.99
2017-03-07T10:33:27.904Z,68.9
2017-03-07T10:34:27.925Z,69.46
2017-03-07T10:35:27.934Z,69.46
2017-03-07T10:36:27.946Z,69.37
2017-03-07T10:37:27.960Z,69.21
2017-03-07T10:38:27.978Z,69.09
2017-03-07T10:39:27.995Z,69.09
2017-03-07T10:40:27.997Z,69.31
2017-03-07T10:41:28.021Z,68.55
2017-03-07T10:42:28.027Z,69.21
2017-03-07T10:43:28.044Z,69.02
2017-03-07T10:44:28.054Z,69.02
2017-03-07T10:45:28.076Z,68.93
2017-03-07T10:46:28.085Z,68.42
2017-03-07T10:47:28.092Z,68.42
2017-03-07T10:48:28.116Z,68.52
2017-03-07T10:49:28.122Z,68.55
2017-03-07T10:50:28.152Z,69.41
2017-03-07T10:51:28.157Z,69.02
2017-03-07T10:52:28.160Z,69.21
2017-03-07T10:53:28.191Z,69.02
2017-03-07T10:54:28.195Z,69.21
2017-03-07T10:55:28.207Z,69.31
2017-03-07T10:56:28.222Z,68.74
2017-03-07T10:57:28.299Z,68.55
2017-03-07T10:58:28.276Z,68.46
2017-03-07T10:59:28.273Z,68.46
2017-03-07T11:00:28.282Z,68.55
2017-03-07T11:01:28.295Z,67.98
2017-03-07T11:02:28.302Z,67.98
2017-03-07T11:03:28.325Z,67.69
2017-03-07T11:04:28.331Z,67.5
2017-03-07T11:05:28.343Z,67.69
2017-03-07T11:06:28.378Z,67.41
2017-03-07T11:07:28.368Z,67.6
2017-03-07T11:08:28.386Z,67.6
2017-03-07T11:09:28.012Z,67.6
2017-03-07T11:10:28.419Z,67.5
2017-03-07T11:11:28.426Z,68.17
2017-03-07T11:12:28.443Z,67.5
2017-03-07T11:13:28.456Z,67.13
2017-03-07T11:14:28.475Z,67.69
2017-03-07T11:15:28.506Z,67.13
2017-03-07T11:16:28.494Z,67.5
2017-03-07T11:17:28.520Z,67.41
2017-03-07T11:18:28.522Z,67.5
2017-03-07T11:19:28.541Z,67.5
2017-03-07T11:20:28.556Z,68.36
2017-03-07T11:21:28.570Z,67.41
2017-03-07T11:22:28.581Z,67.41
2017-03-07T11:23:28.603Z,67.88
2017-03-07T11:24:28.612Z,67.98
2017-03-07T11:25:28.654Z,67.41
2017-03-07T11:26:28.650Z,67.22
2017-03-07T11:27:28.647Z,67.69
2017-03-07T11:28:28.668Z,67.5
2017-03-07T11:29:28.697Z,67.88
2017-03-07T11:30:28.696Z,67.98
2017-03-07T11:31:28.709Z,68.07
2017-03-07T11:32:28.721Z,68.17
2017-03-07T11:33:28.730Z,67.98
2017-03-07T11:34:28.773Z,67.88
2017-03-07T11:35:28.757Z,68.07
2017-03-07T11:36:28.783Z,68.07
2017-03-07T11:37:28.789Z,67.69
2017-03-07T11:38:28.802Z,67.6
2017-03-07T11:39:28.815Z,67.41
2017-03-07T11:40:28.831Z,67.6
2017-03-07T11:41:28.846Z,68.07
2017-03-07T11:42:28.867Z,68.27
2017-03-07T11:43:28.872Z,68.07
2017-03-07T11:44:28.891Z,68.17
2017-03-07T11:45:28.927Z,68.27
2017-03-07T11:46:28.919Z,67.63
2017-03-07T11:47:28.931Z,67.69
2017-03-07T11:48:28.944Z,67.32
2017-03-07T11:49:28.956Z,67.63
2017-03-07T11:50:28.975Z,67.32
2017-03-07T11:51:28.987Z,67.03
2017-03-07T11:52:28.999Z,66.65
2017-03-07T11:53:29.013Z,66.55
2017-03-07T11:54:29.028Z,66.68
2017-03-07T11:55:29.046Z,66.17
2017-03-07T11:56:29.059Z,66.39
2017-03-07T11:57:29.068Z,66.46
2017-03-07T11:58:29.083Z,66.08
2017-03-07T11:59:29.108Z,66.27
2017-03-07T12:00:28.717Z,65.89
2017-03-07T12:01:28.731Z,66.46
2017-03-07T12:02:28.746Z,66.46
2017-03-07T12:03:28.757Z,66.17
2017-03-07T12:04:29.179Z,66.46
2017-03-07T12:05:28.787Z,66.46
2017-03-07T12:06:28.803Z,66.74
2017-03-07T12:07:28.832Z,66.27
2017-03-07T12:08:28.830Z,66.94
2017-03-07T12:09:28.853Z,65.89
2017-03-07T12:10:29.282Z,66.36
2017-03-07T12:11:29.273Z,66.27
2017-03-07T12:12:28.887Z,66.36
2017-03-07T12:13:28.908Z,66.17
2017-03-07T12:14:28.920Z,66.17
2017-03-07T12:15:28.928Z,65.89
2017-03-07T12:16:29.339Z,65.99
2017-03-07T12:17:29.370Z,65.7
2017-03-07T12:18:29.372Z,66.55
2017-03-07T12:19:29.382Z,66.36
2017-03-07T12:20:29.000Z,66.36
2017-03-07T12:21:29.407Z,66.55
2017-03-07T12:22:29.041Z,66.65
2017-03-07T12:23:29.042Z,65.99
2017-03-07T12:24:29.464Z,66.27
2017-03-07T12:25:29.467Z,66.39
2017-03-07T12:26:29.485Z,66.36
2017-03-07T12:27:29.100Z,66.55
2017-03-07T12:28:29.534Z,66.74
2017-03-07T12:29:29.133Z,65.99
2017-03-07T12:30:29.553Z,66.74
2017-03-07T12:31:29.169Z,66.17
2017-03-07T12:32:29.619Z,66.49
2017-03-07T12:33:30.196Z,66.02
2017-03-07T12:34:29.709Z,66.08
2017-03-07T12:35:29.636Z,66.08
2017-03-07T12:36:29.626Z,65.89
2017-03-07T12:37:29.639Z,65.99
2017-03-07T12:38:29.656Z,66.46
2017-03-07T12:39:29.673Z,66.36
2017-03-07T12:40:29.311Z,66.39
2017-03-07T12:41:29.296Z,66.36
2017-03-07T12:42:29.721Z,66.39
2017-03-07T12:43:29.740Z,66.59
2017-03-07T12:44:29.739Z,66.55
2017-03-07T12:45:29.749Z,66.68
2017-03-07T12:46:29.780Z,66.39
2017-03-07T12:47:29.384Z,66.78
2017-03-07T12:48:29.793Z,65.92
2017-03-07T12:49:29.809Z,66.02
2017-03-07T12:50:29.824Z,66.39
2017-03-07T12:51:29.835Z,66.2
2017-03-07T12:52:29.452Z,66.39
2017-03-07T12:53:29.864Z,66.2
2017-03-07T12:54:29.886Z,66.2
2017-03-07T12:55:29.909Z,65.92
2017-03-07T12:56:29.909Z,65.64
2017-03-07T12:57:29.938Z,65.64